createdAt,value
2018-02-07T00:00:57.709Z,74.25
2018-02-07T00:03:26.132Z,74.01
2018-02-07T00:05:54.488Z,73.82
2018-02-07T00:08:22.856Z,73.84
2018-02-07T00:10:51.222Z,73.97
2018-02-07T00:13:19.620Z,73.89
2018-02-07T00:15:47.993Z,73.94
2018-02-07T00:18:16.342Z,73.66
2018-02-07T00:20:44.724Z,73.84
2018-02-07T00:23:13.082Z,74.09
2018-02-07T00:25:42.228Z,74.10
2018-02-07T00:28:10.612Z,74.35
2018-02-07T00:30:38.976Z,74.16
2018-02-07T00:33:07.352Z,73.98
2018-02-07T00:35:35.728Z,74.11
2018-02-07T00:38:04.076Z,74.28
2018-02-07T00:40:32.447Z,74.23
2018-02-07T00:43:01.585Z,74.25
2018-02-07T00:45:30.010Z,74.16
2018-02-07T00:47:58.409Z,74.09
2018-02-07T00:50:26.792Z,74.12
2018-02-07T00:52:55.548Z,74.12
2018-02-07T00:55:24.372Z,74.45
2018-02-07T00:57:52.736Z,74.65
2018-02-07T01:00:21.128Z,74.70
2018-02-07T01:02:49.504Z,75.15
2018-02-07T01:05:17.904Z,74.97
2018-02-07T01:07:46.304Z,75.26
2018-02-07T01:10:14.688Z,75.29
2018-02-07T01:12:43.062Z,75.15
2018-02-07T01:15:11.449Z,75.17
2018-02-07T01:17:39.797Z,75.31
2018-02-07T01:20:08.144Z,75.21
2018-02-07T01:22:36.569Z,75.36
2018-02-07T01:25:04.936Z,75.56
2018-02-07T01:27:33.320Z,75.45
2018-02-07T01:30:01.701Z,75.45
2018-02-07T01:32:30.087Z,75.62
2018-02-07T01:34:58.840Z,75.71
2018-02-07T01:37:27.208Z,75.90
2018-02-07T01:39:55.560Z,75.92
2018-02-07T01:42:24.342Z,76.03
2018-02-07T01:44:52.704Z,76.26
2018-02-07T01:47:22.465Z,76.09
2018-02-07T01:49:50.849Z,76.10
2018-02-07T01:52:19.636Z,76.19
2018-02-07T01:54:48.388Z,76.49
2018-02-07T01:57:17.539Z,76.78
2018-02-07T01:59:45.891Z,76.87
2018-02-07T02:02:14.237Z,77.08
2018-02-07T02:04:43.387Z,77.12
2018-02-07T02:07:11.739Z,77.37
2018-02-07T02:09:40.122Z,77.54
2018-02-07T02:12:09.628Z,77.74
2018-02-07T02:14:38.020Z,77.97
2018-02-07T02:17:07.131Z,78.14
2018-02-07T02:19:35.884Z,78.32
2018-02-07T02:22:04.268Z,78.50
2018-02-07T02:24:33.461Z,78.71
2018-02-07T02:27:02.620Z,78.65
2018-02-07T02:29:31.735Z,78.74
2018-02-07T02:32:00.132Z,79.09
2018-02-07T02:34:29.264Z,79.10
2018-02-07T02:36:58.621Z,79.18
2018-02-07T02:39:27.008Z,79.30
2018-02-07T02:41:55.399Z,79.32
2018-02-07T02:44:23.752Z,79.26
2018-02-07T02:46:52.892Z,78.96
2018-02-07T02:49:21.667Z,79.54
2018-02-07T02:51:50.455Z,78.65
2018-02-07T02:54:18.811Z,78.75
2018-02-07T02:56:47.193Z,78.89
2018-02-07T02:59:16.684Z,79.18
2018-02-07T03:01:45.471Z,79.09
2018-02-07T03:04:14.595Z,78.63
2018-02-07T03:06:43.023Z,78.77
2018-02-07T03:09:11.400Z,78.63
2018-02-07T03:11:39.779Z,78.90
2018-02-07T03:14:08.163Z,78.88
2018-02-07T03:16:37.335Z,78.48
2018-02-07T03:19:05.683Z,78.28
2018-02-07T03:21:34.431Z,78.16
2018-02-07T03:24:03.588Z,78.32
2018-02-07T03:26:32.372Z,78.55
2018-02-07T03:29:00.751Z,78.75
2018-02-07T03:31:29.123Z,78.98
2018-02-07T03:33:57.491Z,79.11
2018-02-07T03:36:25.866Z,79.26
2018-02-07T03:38:54.207Z,79.49
2018-02-07T03:41:23.371Z,79.43
2018-02-07T03:43:52.479Z,79.66
2018-02-07T03:46:20.854Z,79.69
2018-02-07T03:48:49.254Z,79.72
2018-02-07T03:51:18.378Z,80.22
2018-02-07T03:53:46.798Z,80.27
2018-02-07T03:56:15.146Z,80.48
2018-02-07T03:58:43.535Z,80.51
2018-02-07T04:01:12.731Z,80.53
2018-02-07T04:03:41.875Z,80.47
2018-02-07T04:06:11.003Z,80.60
2018-02-07T04:08:40.167Z,80.50
2018-02-07T04:11:09.323Z,80.53
2018-02-07T04:13:37.686Z,80.77
2018-02-07T04:16:06.059Z,80.79
2018-02-07T04:18:34.399Z,80.85
2018-02-07T04:21:03.514Z,80.71
2018-02-07T04:23:31.895Z,80.32
2018-02-07T04:26:00.234Z,80.23
2018-02-07T04:28:28.642Z,79.96
2018-02-07T04:30:56.983Z,79.75
2018-02-07T04:33:25.342Z,79.73
2018-02-07T04:35:53.739Z,79.75
2018-02-07T04:38:22.478Z,79.57
2018-02-07T04:40:50.820Z,79.59
2018-02-07T04:43:19.978Z,79.53
2018-02-07T04:45:48.326Z,79.45
2018-02-07T04:48:16.698Z,79.33
2018-02-07T04:50:45.043Z,79.34
2018-02-07T04:53:13.414Z,79.23
2018-02-07T04:55:41.806Z,79.26
2018-02-07T04:58:11.662Z,79.29
2018-02-07T05:00:40.038Z,79.27
2018-02-07T05:03:08.411Z,78.90
2018-02-07T05:05:36.844Z,78.76
2018-02-07T05:08:05.201Z,78.48
2018-02-07T05:10:33.566Z,78.23
2018-02-07T05:13:01.966Z,78.18
2018-02-07T05:15:30.322Z,78.28
2018-02-07T05:18:00.206Z,78.21
2018-02-07T05:20:28.586Z,77.80
2018-02-07T05:22:57.810Z,77.83
2018-02-07T05:25:26.193Z,77.81
2018-02-07T05:27:54.534Z,77.68
2018-02-07T05:30:22.910Z,77.17
2018-02-07T05:32:51.265Z,77.03
2018-02-07T05:35:20.417Z,76.99
2018-02-07T05:37:48.794Z,77.03
2018-02-07T05:40:17.178Z,77.13
2018-02-07T05:42:45.527Z,77.26
2018-02-07T05:45:13.881Z,77.30
2018-02-07T05:47:43.038Z,77.38
2018-02-07T05:50:11.422Z,77.45
2018-02-07T05:52:39.769Z,77.66
2018-02-07T05:55:08.137Z,77.79
2018-02-07T05:57:36.490Z,77.93
2018-02-07T06:00:05.645Z,77.82
2018-02-07T06:02:34.030Z,77.85
2018-02-07T06:05:02.426Z,78.42
2018-02-07T06:07:31.173Z,78.79
2018-02-07T06:09:59.562Z,79.12
2018-02-07T06:12:27.909Z,79.29
2018-02-07T06:14:56.261Z,79.33
2018-02-07T06:17:25.389Z,79.33
2018-02-07T06:19:53.734Z,79.58
2018-02-07T06:22:22.881Z,79.84
2018-02-07T06:24:51.238Z,79.87
2018-02-07T06:27:20.034Z,79.90
2018-02-07T06:29:48.393Z,79.98
2018-02-07T06:32:16.765Z,80.03
2018-02-07T06:34:45.986Z,80.10
2018-02-07T06:37:14.381Z,80.19
2018-02-07T06:39:42.737Z,80.22
2018-02-07T06:42:11.088Z,80.66
2018-02-07T06:44:39.481Z,80.36
2018-02-07T06:47:07.858Z,80.37
2018-02-07T06:49:36.205Z,80.41
2018-02-07T06:52:04.545Z,80.07
2018-02-07T06:54:32.933Z,79.79
2018-02-07T06:57:02.085Z,79.59
2018-02-07T06:59:31.249Z,79.20
2018-02-07T07:02:00.029Z,78.98
2018-02-07T07:04:28.425Z,78.33
2018-02-07T07:06:56.795Z,77.71
2018-02-07T07:09:25.181Z,77.15
2018-02-07T07:11:54.321Z,76.31
2018-02-07T07:14:22.721Z,75.88
2018-02-07T07:16:51.512Z,75.45
2018-02-07T07:19:22.545Z,74.41
2018-02-07T07:21:50.933Z,73.49
2018-02-07T07:24:19.641Z,73.01
2018-02-07T07:26:48.877Z,72.23
2018-02-07T07:29:17.253Z,72.42
2018-02-07T07:31:45.707Z,72.17
2018-02-07T07:34:14.113Z,71.95
2018-02-07T07:36:42.552Z,71.73
2018-02-07T07:39:10.921Z,71.06
2018-02-07T07:41:39.335Z,71.42
2018-02-07T07:44:09.960Z,70.95
2018-02-07T07:46:39.174Z,70.36
2018-02-07T07:49:07.942Z,70.18
2018-02-07T07:51:37.097Z,69.75
2018-02-07T07:54:05.841Z,68.95
2018-02-07T07:56:34.988Z,68.53
2018-02-07T07:59:03.370Z,68.69
2018-02-07T08:01:31.740Z,68.71
2018-02-07T08:04:00.122Z,68.26
2018-02-07T08:06:29.250Z,68.06
2018-02-07T08:08:58.642Z,66.67
2018-02-07T08:11:26.990Z,65.41
2018-02-07T08:13:55.410Z,65.50
2018-02-07T08:16:24.525Z,65.77
2018-02-07T08:18:52.915Z,66.11
2018-02-07T08:21:21.272Z,66.14
2018-02-07T08:23:50.425Z,65.25
2018-02-07T08:26:18.789Z,64.75
2018-02-07T08:28:47.172Z,64.80
2018-02-07T08:31:15.560Z,63.66
2018-02-07T08:33:43.968Z,61.84
2018-02-07T08:36:13.113Z,60.45
2018-02-07T08:38:41.484Z,59.83
2018-02-07T08:41:09.856Z,60.64
2018-02-07T08:43:38.259Z,61.52
2018-02-07T08:46:06.640Z,61.13
2018-02-07T08:48:34.976Z,59.79
2018-02-07T08:51:04.118Z,59.05
2018-02-07T08:53:32.496Z,58.11
2018-02-07T08:56:00.840Z,57.84
2018-02-07T08:58:29.181Z,58.60
2018-02-07T09:00:58.321Z,60.18
2018-02-07T09:03:26.682Z,60.93
2018-02-07T09:05:55.057Z,59.95
2018-02-07T09:08:23.416Z,60.11
2018-02-07T09:10:52.556Z,60.50
2018-02-07T09:13:22.065Z,60.08
2018-02-07T09:15:50.457Z,59.05
2018-02-07T09:18:18.833Z,58.19
2018-02-07T09:20:47.216Z,58.33
2018-02-07T09:23:15.568Z,59.28
2018-02-07T09:25:43.912Z,59.57
2018-02-07T09:28:12.297Z,58.60
2018-02-07T09:30:40.654Z,57.82
2018-02-07T09:33:09.032Z,58.12
2018-02-07T09:35:37.377Z,58.50
2018-02-07T09:38:05.776Z,59.03
2018-02-07T09:40:34.145Z,60.69
2018-02-07T09:43:02.491Z,60.87
2018-02-07T09:45:30.861Z,61.43
2018-02-07T09:47:59.244Z,62.00
2018-02-07T09:50:27.638Z,61.89
2018-02-07T09:52:56.792Z,62.21
2018-02-07T09:55:25.964Z,62.78
2018-02-07T09:57:54.318Z,63.16
2018-02-07T10:00:22.690Z,63.30
2018-02-07T10:02:51.088Z,63.19
2018-02-07T10:05:19.463Z,63.24
2018-02-07T10:07:47.856Z,62.90
2018-02-07T10:10:16.236Z,62.65
2018-02-07T10:12:44.584Z,62.30
2018-02-07T10:15:12.984Z,62.17
2018-02-07T10:17:41.331Z,62.13
2018-02-07T10:20:09.671Z,62.46
2018-02-07T10:22:38.853Z,62.48
2018-02-07T10:25:07.232Z,62.28
2018-02-07T10:27:35.587Z,62.04
2018-02-07T10:30:03.968Z,61.95
2018-02-07T10:32:32.344Z,62.05
2018-02-07T10:35:00.764Z,61.82
2018-02-07T10:37:29.911Z,61.56
2018-02-07T10:39:58.291Z,61.42
2018-02-07T10:42:26.667Z,61.09
2018-02-07T10:44:55.032Z,60.27
2018-02-07T10:47:23.408Z,60.12
2018-02-07T10:49:51.804Z,59.93
2018-02-07T10:52:20.160Z,60.29
2018-02-07T10:54:48.550Z,59.75
2018-02-07T10:57:16.959Z,59.77
2018-02-07T10:59:45.623Z,59.82
2018-02-07T11:02:14.167Z,59.46
2018-02-07T11:04:42.555Z,59.10
2018-02-07T11:07:11.709Z,59.27
2018-02-07T11:09:40.083Z,59.63
2018-02-07T11:12:09.270Z,59.49
2018-02-07T11:14:38.012Z,59.48
2018-02-07T11:17:06.356Z,59.74
2018-02-07T11:19:35.499Z,59.50
2018-02-07T11:22:03.879Z,59.71
2018-02-07T11:24:32.285Z,59.93
2018-02-07T11:27:00.671Z,59.63
2018-02-07T11:29:29.011Z,59.67
2018-02-07T11:31:57.408Z,59.18
2018-02-07T11:34:25.824Z,59.22
2018-02-07T11:36:54.986Z,59.24
2018-02-07T11:39:23.365Z,58.64
2018-02-07T11:41:51.722Z,58.85
2018-02-07T11:44:20.099Z,58.84
2018-02-07T11:46:48.437Z,58.47
2018-02-07T11:49:17.589Z,58.29
2018-02-07T11:51:45.931Z,58.25
2018-02-07T11:54:14.339Z,57.46
2018-02-07T11:56:42.681Z,57.44
2018-02-07T11:59:11.039Z,57.89
2018-02-07T12:01:40.182Z,57.93
2018-02-07T12:04:08.571Z,57.70
2018-02-07T12:06:36.915Z,57.34
2018-02-07T12:09:05.299Z,57.37
2018-02-07T12:11:33.663Z,57.46
2018-02-07T12:14:01.995Z,57.43
2018-02-07T12:16:30.383Z,57.32
2018-02-07T12:18:58.726Z,57.16
2018-02-07T12:21:27.091Z,57.08
2018-02-07T12:23:55.441Z,56.70
2018-02-07T12:26:24.575Z,56.94
2018-02-07T12:28:52.923Z,56.83
2018-02-07T12:31:21.323Z,56.40
2018-02-07T12:33:49.649Z,56.31
2018-02-07T12:36:18.035Z,56.40
2018-02-07T12:38:47.225Z,56.65
2018-02-07T12:41:15.583Z,56.44
2018-02-07T12:43:43.932Z,56.08
2018-02-07T12:46:12.310Z,55.88
2018-02-07T12:48:40.652Z,55.71
2018-02-07T12:51:08.974Z,55.73
2018-02-07T12:53:37.391Z,55.85
2018-02-07T12:56:05.730Z,55.67
2018-02-07T12:58:34.106Z,55.65
2018-02-07T13:01:02.510Z,55.47
2018-02-07T13:03:31.075Z,55.08
2018-02-07T13:05:59.434Z,55.15
2018-02-07T13:08:27.811Z,55.13
2018-02-07T13:10:56.728Z,54.92
2018-02-07T13:13:25.079Z,54.84
2018-02-07T13:15:53.450Z,54.82
2018-02-07T13:18:21.785Z,54.79
2018-02-07T13:20:50.161Z,54.10
2018-02-07T13:23:18.498Z,54.42
2018-02-07T13:25:46.878Z,54.71
2018-02-07T13:28:15.282Z,54.60
2018-02-07T13:30:43.626Z,54.80
2018-02-07T13:33:12.016Z,55.06
2018-02-07T13:35:40.358Z,55.06
2018-02-07T13:38:08.694Z,54.84
2018-02-07T13:40:37.073Z,55.12
2018-02-07T13:43:05.458Z,55.12
2018-02-07T13:45:33.798Z,55.35
2018-02-07T13:48:02.186Z,55.33
2018-02-07T13:50:30.549Z,55.65
2018-02-07T13:52:58.894Z,55.49
2018-02-07T13:55:28.043Z,55.62
2018-02-07T13:57:56.381Z,55.44
2018-02-07T14:00:24.776Z,55.39
2018-02-07T14:02:53.124Z,55.52
2018-02-07T14:05:22.266Z,55.52
2018-02-07T14:07:50.625Z,55.47
2018-02-07T14:10:18.992Z,55.66
2018-02-07T14:12:47.342Z,55.66
2018-02-07T14:15:16.494Z,55.80
2018-02-07T14:17:44.841Z,55.75
2018-02-07T14:20:13.218Z,55.68
2018-02-07T14:22:41.600Z,55.92
2018-02-07T14:25:09.955Z,56.09
2018-02-07T14:27:39.106Z,56.42
2018-02-07T14:30:07.474Z,56.42
2018-02-07T14:32:35.859Z,56.39
2018-02-07T14:35:04.230Z,56.44
2018-02-07T14:37:32.588Z,56.65
2018-02-07T14:40:00.962Z,56.70
2018-02-07T14:42:29.372Z,56.78
2018-02-07T14:44:57.754Z,56.99
2018-02-07T14:47:26.093Z,57.13
2018-02-07T14:49:54.442Z,57.36
2018-02-07T14:52:23.583Z,57.41
2018-02-07T14:54:51.938Z,57.43
2018-02-07T14:57:20.318Z,57.33
2018-02-07T14:59:48.674Z,57.47
2018-02-07T15:02:17.829Z,57.77
2018-02-07T15:04:46.293Z,57.79
2018-02-07T15:07:14.675Z,57.75
2018-02-07T15:09:43.013Z,57.86
2018-02-07T15:12:12.153Z,57.92
2018-02-07T15:14:40.502Z,58.34
2018-02-07T15:17:08.885Z,58.18
2018-02-07T15:19:37.226Z,58.09
2018-02-07T15:22:07.107Z,58.12
2018-02-07T15:24:35.489Z,58.42
2018-02-07T15:27:03.861Z,58.31
2018-02-07T15:29:32.264Z,58.64
2018-02-07T15:32:00.617Z,58.78
2018-02-07T15:34:29.003Z,58.99
2018-02-07T15:36:57.389Z,59.33
2018-02-07T15:39:25.769Z,59.56
2018-02-07T15:41:54.114Z,59.69
2018-02-07T15:44:22.539Z,59.91
2018-02-07T15:46:50.906Z,60.11
2018-02-07T15:49:19.297Z,60.18
2018-02-07T15:51:47.729Z,60.30
2018-02-07T15:54:16.069Z,60.54
2018-02-07T15:56:45.215Z,60.89
2018-02-07T15:59:13.562Z,61.34
2018-02-07T16:01:41.949Z,61.79
2018-02-07T16:04:10.308Z,61.93
2018-02-07T16:06:39.441Z,62.29
2018-02-07T16:09:07.829Z,61.99
2018-02-07T16:11:36.193Z,61.93
2018-02-07T16:14:04.593Z,62.08
2018-02-07T16:16:32.981Z,62.17
2018-02-07T16:19:01.338Z,62.51
2018-02-07T16:21:29.724Z,62.61
2018-02-07T16:23:58.085Z,62.38
2018-02-07T16:26:26.464Z,62.49
2018-02-07T16:28:54.913Z,62.65
2018-02-07T16:31:23.272Z,62.71
2018-02-07T16:33:53.030Z,63.04
2018-02-07T16:36:21.437Z,63.69
2018-02-07T16:38:49.904Z,64.06
2018-02-07T16:41:18.506Z,64.26
2018-02-07T16:43:47.766Z,64.33
2018-02-07T16:46:16.363Z,64.32
2018-02-07T16:48:44.830Z,64.42
2018-02-07T16:51:14.113Z,64.55
2018-02-07T16:53:42.478Z,64.85
2018-02-07T16:56:11.622Z,65.20
2018-02-07T16:58:39.974Z,65.23
2018-02-07T17:01:08.338Z,65.34
2018-02-07T17:03:36.725Z,65.95
2018-02-07T17:06:05.084Z,66.34
2018-02-07T17:08:34.454Z,66.49
2018-02-07T17:11:02.869Z,66.94
2018-02-07T17:13:31.678Z,67.07
2018-02-07T17:16:00.066Z,66.61
2018-02-07T17:18:28.417Z,66.36
2018-02-07T17:20:57.573Z,66.26
2018-02-07T17:23:25.964Z,66.32
2018-02-07T17:25:54.305Z,66.20
2018-02-07T17:28:22.694Z,66.38
2018-02-07T17:30:51.066Z,66.68
2018-02-07T17:33:19.460Z,67.10
2018-02-07T17:35:47.862Z,67.52
2018-02-07T17:38:16.213Z,67.72
2018-02-07T17:40:44.608Z,67.72
2018-02-07T17:43:12.968Z,67.78
2018-02-07T17:45:41.382Z,67.90
2018-02-07T17:48:10.524Z,67.99
2018-02-07T17:50:38.929Z,68.38
2018-02-07T17:53:07.335Z,68.63
2018-02-07T17:55:36.340Z,68.78
2018-02-07T17:58:04.757Z,69.45
2018-02-07T18:00:33.240Z,69.57
2018-02-07T18:03:01.606Z,69.78
2018-02-07T18:05:29.980Z,70.20
2018-02-07T18:07:58.332Z,70.34
2018-02-07T18:10:27.837Z,70.45
2018-02-07T18:12:56.238Z,70.70
2018-02-07T18:15:24.618Z,70.96
2018-02-07T18:17:52.991Z,71.18
2018-02-07T18:20:21.364Z,71.46
2018-02-07T18:22:49.845Z,71.64
2018-02-07T18:25:18.208Z,71.91
2018-02-07T18:27:47.372Z,72.19
2018-02-07T18:30:15.779Z,72.70
2018-02-07T18:32:44.916Z,73.37
2018-02-07T18:35:13.321Z,73.17
2018-02-07T18:37:41.908Z,73.83
2018-02-07T18:40:11.077Z,74.03
2018-02-07T18:42:39.441Z,74.12
2018-02-07T18:45:07.834Z,74.23
2018-02-07T18:47:39.255Z,74.75
2018-02-07T18:50:12.196Z,74.74
2018-02-07T18:52:40.795Z,75.28
2018-02-07T18:55:09.965Z,75.10
2018-02-07T18:57:38.447Z,75.14
2018-02-07T19:00:06.848Z,75.16
2018-02-07T19:02:35.405Z,75.41
2018-02-07T19:05:04.153Z,75.41
2018-02-07T19:07:32.501Z,75.58
2018-02-07T19:10:01.645Z,75.67
2018-02-07T19:12:30.041Z,75.76
2018-02-07T19:14:58.421Z,75.80
2018-02-07T19:17:27.644Z,75.86
2018-02-07T19:19:56.420Z,76.20
2018-02-07T19:22:24.841Z,76.50
2018-02-07T19:24:54.581Z,76.65
2018-02-07T19:27:26.160Z,76.92
2018-02-07T19:29:54.511Z,77.08
2018-02-07T19:32:23.907Z,76.95
2018-02-07T19:34:52.268Z,77.03
2018-02-07T19:37:20.613Z,76.97
2018-02-07T19:39:49.605Z,77.25
2018-02-07T19:42:18.379Z,77.33
2018-02-07T19:44:46.803Z,77.29
2018-02-07T19:47:15.177Z,77.38
2018-02-07T19:49:44.331Z,77.52
2018-02-07T19:52:14.188Z,77.68
2018-02-07T19:54:42.551Z,77.51
2018-02-07T19:57:10.901Z,77.55
2018-02-07T19:59:39.307Z,77.56
2018-02-07T20:02:08.436Z,77.71
2018-02-07T20:04:36.787Z,77.67
2018-02-07T20:07:06.824Z,77.82
2018-02-07T20:09:35.174Z,77.96
2018-02-07T20:12:03.562Z,78.03
2018-02-07T20:14:32.728Z,78.16
2018-02-07T20:17:01.892Z,78.17
2018-02-07T20:19:30.248Z,78.19
2018-02-07T20:21:58.680Z,78.39
2018-02-07T20:24:27.899Z,78.25
2018-02-07T20:26:57.806Z,78.31
2018-02-07T20:29:27.734Z,78.41
2018-02-07T20:31:57.486Z,78.45
2018-02-07T20:34:25.903Z,78.45
2018-02-07T20:36:54.924Z,78.46
2018-02-07T20:39:24.087Z,78.43
2018-02-07T20:41:52.461Z,78.38
2018-02-07T20:44:22.194Z,78.32
2018-02-07T20:46:50.634Z,78.31
2018-02-07T20:49:19.047Z,78.12
2018-02-07T20:51:49.855Z,77.80
2018-02-07T20:54:18.251Z,77.56
2018-02-07T20:56:47.555Z,77.38
2018-02-07T20:59:16.662Z,77.16
2018-02-07T21:01:45.847Z,76.86
2018-02-07T21:04:15.754Z,76.57
2018-02-07T21:06:44.304Z,76.41
2018-02-07T21:09:13.322Z,76.08
2018-02-07T21:11:41.719Z,75.91
2018-02-07T21:14:10.867Z,75.76
2018-02-07T21:16:41.324Z,75.55
2018-02-07T21:19:09.714Z,75.46
2018-02-07T21:21:38.871Z,75.36
2018-02-07T21:24:07.258Z,75.11
2018-02-07T21:26:35.638Z,75.13
2018-02-07T21:29:04.030Z,75.20
2018-02-07T21:31:32.377Z,75.22
2018-02-07T21:34:01.930Z,75.21
2018-02-07T21:36:30.338Z,75.17
2018-02-07T21:38:59.591Z,75.07
2018-02-07T21:41:27.917Z,74.99
2018-02-07T21:43:57.798Z,74.97
2018-02-07T21:46:26.179Z,74.96
2018-02-07T21:48:55.259Z,75.00
2018-02-07T21:51:23.626Z,75.13
2018-02-07T21:53:52.074Z,75.06
2018-02-07T21:56:20.816Z,74.50
2018-02-07T21:58:49.254Z,74.02
2018-02-07T22:01:18.327Z,73.40
2018-02-07T22:03:46.716Z,73.14
2018-02-07T22:06:15.059Z,73.02
2018-02-07T22:08:43.446Z,73.24
2018-02-07T22:11:11.822Z,73.52
2018-02-07T22:13:40.155Z,74.10
2018-02-07T22:16:08.518Z,74.31
2018-02-07T22:18:36.850Z,74.56
2018-02-07T22:21:05.252Z,74.71
2018-02-07T22:23:33.639Z,75.01
2018-02-07T22:26:01.998Z,75.91
2018-02-07T22:28:30.397Z,75.88
2018-02-07T22:30:58.766Z,75.33
2018-02-07T22:33:27.102Z,74.95
2018-02-07T22:35:55.561Z,74.93
2018-02-07T22:38:23.943Z,75.38
2018-02-07T22:40:52.288Z,75.82
2018-02-07T22:43:20.673Z,76.12
2018-02-07T22:45:49.017Z,76.34
2018-02-07T22:48:17.368Z,76.29
2018-02-07T22:50:45.753Z,75.91
2018-02-07T22:53:14.089Z,75.83
2018-02-07T22:55:42.477Z,76.03
2018-02-07T22:58:10.820Z,76.04
2018-02-07T23:00:39.172Z,76.04
2018-02-07T23:03:08.319Z,75.85
2018-02-07T23:05:36.705Z,75.64
2018-02-07T23:08:05.084Z,75.46
2018-02-07T23:10:33.489Z,75.08
2018-02-07T23:13:02.238Z,75.11
2018-02-07T23:15:30.621Z,75.14
2018-02-07T23:17:59.060Z,74.98
2018-02-07T23:20:27.393Z,74.98
2018-02-07T23:22:55.769Z,74.92
2018-02-07T23:25:24.573Z,74.88
2018-02-07T23:27:53.369Z,74.79
2018-02-07T23:30:21.735Z,74.89
2018-02-07T23:32:50.137Z,74.88
2018-02-07T23:35:19.329Z,75.09
2018-02-07T23:37:47.754Z,75.17
2018-02-07T23:40:16.109Z,75.14
2018-02-07T23:42:44.505Z,75.13
2018-02-07T23:45:12.881Z,75.38
2018-02-07T23:47:41.289Z,75.43
2018-02-07T23:50:09.643Z,75.54
2018-02-07T23:52:38.001Z,75.31
2018-02-07T23:55:06.377Z,75.07
2018-02-07T23:57:34.741Z,74.65
